• Join FlightAware (Why Join?)
  • Login
  • US Flag 
05:26AM EST


 

Airport Tracker/Info


-or-


 

Live Flight TrackerFlight Track Log ✈ JZA8279 ✈ 07-May-2013 ✈ CYPR - CYVR

Flight Track Log - Related Links

Times and Time Zones

All times are in EDT time to prevent confusion due to time zone crossing. See the JZA8279 flight status page for this flight to view local times or setup timezone preferences in your user account.

Time Position Orientation Groundspeed Altitude Reporting Facility
EDT Latitude Longitude Course Direction KTS MPH feet Rate Location/Type
01:52PM 54.2500 -130.4500 136° Southeast 130 150 1,400  Level Vancouver Center
01:53PM 54.2000 -130.4000 150° Southeast 170 196 2,200 840 Climbing Vancouver Center
01:54PM 54.1667 -130.3333 130° Southeast 190 219 3,100 660 Climbing Vancouver Center
01:55PM 54.1333 -130.2667 130° Southeast 210 242 3,600 540 Climbing Vancouver Center
01:56PM 54.0833 -130.1667 130° Southeast 220 253 4,200 600 Climbing Vancouver Center
01:57PM 54.0333 -130.1167 150° Southeast 220 253 4,800 420 Climbing Vancouver Center
01:58PM 54.0019 -129.9736 136° Southeast  Level Estimated
01:58PM 53.9833 -130.0500 142° Southeast 220 253 5,100  Level Vancouver Center
01:59PM 53.9667 -129.9500 106° East 230 265 5,600 600 Climbing Vancouver Center
02:00PM 53.9167 -129.9000 149° Southeast 230 265 6,400 720 Climbing Vancouver Center
02:01PM 53.8667 -129.8000 130° Southeast 230 265 7,100 540 Climbing Vancouver Center
02:02PM 53.8167 -129.7333 142° Southeast 230 265 7,500 420 Climbing Vancouver Center
02:03PM 53.7667 -129.6500 135° Southeast 240 276 8,000 540 Climbing Vancouver Center
02:04PM 53.7333 -129.5833 130° Southeast 240 276 8,600 600 Climbing Vancouver Center
02:05PM 53.6833 -129.5000 135° Southeast 230 265 9,300 600 Climbing Vancouver Center
02:06PM 53.6333 -129.4333 142° Southeast 230 265 9,900 600 Climbing Vancouver Center
02:07PM 53.5833 -129.3333 130° Southeast 230 265 10,600 600 Climbing Vancouver Center
02:08PM 53.5333 -129.2833 149° Southeast 230 265 11,200 600 Climbing Vancouver Center
02:09PM 53.5000 -129.1833 119° Southeast 240 276 11,900 660 Climbing Vancouver Center
02:10PM 53.4500 -129.1167 142° Southeast 240 276 12,600 600 Climbing Vancouver Center
02:11PM 53.4000 -129.0333 135° Southeast 240 276 13,200 600 Climbing Vancouver Center
02:12PM 53.3500 -128.9500 135° Southeast 240 276 13,800 600 Climbing Vancouver Center
02:13PM 53.3000 -128.8833 141° Southeast 240 276 14,400 600 Climbing Vancouver Center
02:14PM 53.2667 -128.8000 124° Southeast 250 288 15,000 420 Climbing Vancouver Center
02:15PM 53.2167 -128.7000 130° Southeast 250 288 15,300 360 Climbing Vancouver Center
02:16PM 53.1500 -128.6500 156° South 250 288 15,800 540 Climbing Vancouver Center
02:17PM 53.1000 -128.5500 130° Southeast 260 299 16,400 540 Climbing Vancouver Center
02:18PM 53.0500 -128.4667 135° Southeast 250 288 16,900 540 Climbing Vancouver Center
02:19PM 53.0167 -128.3833 124° Southeast 250 288 17,500 480 Climbing Vancouver Center
02:20PM 52.9500 -128.2833 138° Southeast 260 299 17,900 420 Climbing Vancouver Center
02:21PM 52.9000 -128.2333 149° Southeast 260 299 18,400 420 Climbing Vancouver Center
02:22PM 52.8500 -128.1333 130° Southeast 260 299 18,800 360 Climbing Vancouver Center
02:23PM 52.8000 -128.0500 135° Southeast 270 311 19,200 360 Climbing Vancouver Center
02:24PM 52.7333 -127.9667 143° Southeast 260 299 19,600 360 Climbing Vancouver Center
02:25PM 52.7000 -127.8833 123° Southeast 260 299 20,000 300 Climbing Vancouver Center
02:26PM 52.6500 -127.7833 129° Southeast 270 311 20,300 300 Climbing Vancouver Center
02:27PM 52.5833 -127.7000 143° Southeast 260 299 20,600 300 Climbing Vancouver Center
02:28PM 52.5333 -127.6333 141° Southeast 270 311 21,000 300 Climbing Vancouver Center
02:29PM 52.4667 -127.5500 143° Southeast 270 311 21,300 300 Climbing Vancouver Center
02:30PM 52.4167 -127.4667 135° Southeast 270 311 21,700 360 Climbing Vancouver Center
02:31PM 52.3500 -127.3833 143° Southeast 270 311 22,100 300 Climbing Vancouver Center
02:32PM 52.3167 -127.3000 123° Southeast 270 311 22,400 300 Climbing Vancouver Center
02:33PM 52.2667 -127.2000 129° Southeast 270 311 22,700 300 Climbing Vancouver Center
02:34PM 52.2000 -127.1167 143° Southeast 270 311 23,000 120 Climbing Vancouver Center
02:35PM 52.1500 -127.0333 134° Southeast 270 311 23,000  Level Vancouver Center
02:36PM 52.0833 -126.9500 142° Southeast 280 322 23,000  Level Vancouver Center
02:37PM 52.0167 -126.8667 142° Southeast 280 322 23,000  Level Vancouver Center
02:38PM 51.9667 -126.7833 134° Southeast 280 322 23,000  Level Vancouver Center
02:39PM 51.9000 -126.7000 142° Southeast 280 322 23,000  Level Vancouver Center
02:40PM 51.8500 -126.6167 134° Southeast 280 322 23,000  Level Vancouver Center
02:41PM 51.8000 -126.5167 129° Southeast 280 322 23,000  Level Vancouver Center
02:42PM 51.7500 -126.4333 134° Southeast 280 322 23,000  Level Vancouver Center
02:43PM 51.6833 -126.3500 142° Southeast 280 322 23,000  Level Vancouver Center
02:44PM 51.6167 -126.2667 142° Southeast 280 322 23,000  Level Vancouver Center
02:45PM 51.5667 -126.1833 134° Southeast 280 322 23,000  Level Vancouver Center
02:46PM 51.5000 -126.1000 142° Southeast 280 322 23,000  Level Vancouver Center
02:47PM 51.4500 -126.0167 134° Southeast 280 322 23,000  Level Vancouver Center
02:48PM 51.3833 -125.9333 142° Southeast 280 322 23,000  Level Vancouver Center
02:49PM 51.3333 -125.8500 134° Southeast 280 322 23,000  Level Vancouver Center
02:50PM 51.2833 -125.7500 129° Southeast 280 322 23,000  Level Vancouver Center
02:51PM 51.2167 -125.6833 148° Southeast 280 322 23,000  Level Vancouver Center
02:52PM 51.1667 -125.5833 129° Southeast 280 322 23,000  Level Vancouver Center
02:53PM 51.1000 -125.5000 142° Southeast 280 322 23,000  Level Vancouver Center
02:54PM 51.0500 -125.4167 134° Southeast 280 322 23,000  Level Vancouver Center
02:55PM 50.9833 -125.3333 142° Southeast 280 322 23,000  Level Vancouver Center
02:56PM 50.9167 -125.2500 142° Southeast 280 322 23,000  Level Vancouver Center
02:57PM 50.8667 -125.1667 134° Southeast 280 322 23,000  Level Vancouver Center
02:58PM 50.8000 -125.1000 148° Southeast 280 322 23,000  Level Vancouver Center
02:59PM 50.7500 -125.0167 133° Southeast 280 322 23,000  Level Vancouver Center
03:00PM 50.6833 -124.9333 142° Southeast 280 322 23,000  Level Vancouver Center
03:01PM 50.6167 -124.8500 142° Southeast 280 322 23,000  Level Vancouver Center
03:02PM 50.5667 -124.7667 133° Southeast 280 322 23,000  Level Vancouver Center
03:03PM 50.5000 -124.6833 141° Southeast 270 311 23,000  Level Vancouver Center
03:04PM 50.4500 -124.6167 140° Southeast 280 322 23,000  Level Vancouver Center
03:05PM 50.3833 -124.5333 141° Southeast 280 322 23,000  Level Vancouver Center
03:06PM 50.3167 -124.4500 141° Southeast 280 322 23,000  Level Vancouver Center
03:07PM 50.2667 -124.3667 133° Southeast 280 322 23,000 -540 Level Vancouver Center
03:08PM 50.2000 -124.3000 147° Southeast 290 334 22,000 -1,020 Descending Vancouver Center
03:09PM 50.1333 -124.2167 141° Southeast 290 334 21,000 -1,020 Descending Vancouver Center
03:10PM 50.0833 -124.1333 133° Southeast 290 334 20,000 -1,140 Descending Vancouver Center
03:11PM 50.0167 -124.0333 136° Southeast 300 345 18,800 -1,140 Descending Vancouver Center
03:12PM 49.9500 -123.9500 141° Southeast 300 345 17,800 -1,140 Descending Vancouver Center
03:13PM 49.8833 -123.8833 147° Southeast 300 345 16,600 -1,140 Descending Vancouver Center
03:14PM 49.8167 -123.8000 141° Southeast 300 345 15,600 -1,080 Descending Vancouver Center
03:15PM 49.7500 -123.7000 136° Southeast 300 345 14,500 -900 Descending Vancouver Center
03:16PM 49.7000 -123.6167 133° Southeast 290 334 13,800 -600 Descending Vancouver Center
03:17PM 49.6333 -123.5667 154° Southeast 280 322 13,400 -540 Descending Vancouver Center
03:18PM 49.5500 -123.5500 173° South 270 311 12,800 -900 Descending Vancouver Center
03:19PM 49.4833 -123.5167 162° South 280 322 11,600 -1,500 Descending Vancouver Center
03:20PM 49.4000 -123.4833 165° South 280 322 9,800 -1,740 Descending Vancouver Center
03:21PM 49.3333 -123.5000 189° South 270 311 8,200 -1,740 Descending Vancouver Center
03:22PM 49.2500 -123.5167 187° South 260 299 6,400 -1,920 Descending Vancouver Center
03:23PM 49.2000 -123.5000 168° South 250 288 4,400 -1,620 Descending Vancouver Center
03:24PM 49.1833 -123.3833 102° East 210 242 3,200 -1,140 Descending Vancouver Center
03:25PM 49.1833 -123.3167 90° East 180 207 2,200 -1,080 Descending Vancouver Center
03:26PM 49.1833 -123.2667 90° East 150 173 1,100 -1,020 Descending Vancouver Center
03:27PM 49.1667 -123.2167 117° Southeast 120 138 200 -900 Descending Vancouver Center